Latest Coastal Weather Observations for Cape Grim

IDV60701

Issued at 8:15 pm EST Saturday 30 August 2014 (issued every 10 minutes, with the page automatically refreshed every 10 minutes)

About coastal observations | Map of coastal stations | Coastal observations for VIC | Marine services | Other Formats
Station Details ID: 091331 Name: CAPE GRIM Lat: -40.68 Lon: 144.69 Height: 86.0 m
Data from the previous 72 hours. | See also: Recent months at Cape Grim
Date/Time
EST
Temp

°C
Wind Pressure Rain
since 9am
mm
Weather Cloud Vis
km
Sea
Height
m
Swell
Dir
 
Speed
knots
Gust
knots
hPa Trend Height
m
Period
s
Dir
30/08:00pm 11.5 ENE 19 23 1021.9 - 0.0 - - - - - - -
30/07:30pm 11.6 ENE 21 25 1021.9 - 0.0 - - - - - - -
30/07:00pm 11.5 ENE 21 26 1021.6 - 0.0 - - - - - - -
30/06:30pm 11.5 ENE 20 24 1021.8 - 0.0 - Partly cloudy - - - - -
30/06:00pm 11.6 ENE 22 26 1021.8 - 0.0 - Mostly clear - - - - -
30/05:30pm 11.8 ENE 23 28 1021.9 - 0.0 - Partly cloudy - - - - -
30/05:00pm 12.1 ENE 23 28 1021.9 - 0.0 - Partly cloudy - - - - -
30/04:30pm 12.4 ENE 24 30 1022.3 - 0.0 - Partly cloudy - - - - -
30/04:00pm 13.0 ENE 24 28 1022.2 - 0.0 - Partly cloudy - - - - -
30/03:30pm 13.0 ENE 25 31 1022.4 - 0.0 - Partly cloudy - - - - -
30/03:00pm 13.5 ENE 23 29 1022.7 - 0.0 - Partly cloudy - - - - -
30/02:30pm 13.6 ENE 22 28 1023.2 - 0.0 - Partly cloudy - - - - -
30/02:00pm 14.0 ENE 24 29 1023.4 - 0.0 - Partly cloudy - - - - -
30/01:30pm 14.1 ENE 23 29 1023.8 - 0.0 - Partly cloudy - - - - -
30/01:00pm 13.7 NE 24 29 1024.1 - 0.0 - Partly cloudy - - - - -
30/12:30pm 13.7 NE 25 28 1024.7 - 0.0 - Partly cloudy - - - - -
30/12:00pm 14.3 NE 24 29 1025.2 - 0.0 - Mostly clear - - - - -
30/11:30am 13.9 NE 22 27 1025.6 - 0.0 - Partly cloudy - - - - -
30/11:00am 13.7 ENE 22 27 1025.8 - 0.0 - Partly cloudy - - - - -
30/10:30am 13.5 ENE 21 26 1026.1 - 0.0 - Partly cloudy - - - - -
30/10:07am 13.5 ENE 21 27 1026.3 - 0.0 - Partly cloudy - - - - -
30/10:00am 13.5 ENE 21 27 1026.4 - 0.0 - Partly cloudy - - - - -
30/09:30am 13.3 ENE 19 25 1026.9 - 0.0 - Partly cloudy - - - - -
30/09:00am 12.5 ENE 18 23 1027.1 - 0.2 - Cloudy - - - - -
30/08:30am 12.2 ENE 17 22 1027.5 - 0.2 - Partly cloudy - - - - -
30/08:00am 11.6 ENE 17 21 1027.5 - 0.2 - Partly cloudy - - - - -
30/07:30am 11.3 ENE 16 20 1027.5 - 0.2 - Partly cloudy - - - - -
30/07:00am 11.2 ENE 17 21 1027.3 - 0.2 - Cloudy - - - - -
30/06:30am 11.2 ENE 17 20 1027.5 - 0.2 - Cloudy - - - - -
30/06:00am 11.4 ENE 15 18 1027.6 - 0.2 - Cloudy - - - - -
30/05:30am 11.3 ENE 15 19 1027.3 - 0.2 - Cloudy - - - - -
30/05:00am 11.3 ENE 14 18 1027.1 - 0.2 - Cloudy - - - - -
30/04:30am 11.5 ENE 13 16 1027.1 - 0.2 - Cloudy - - - - -
30/04:00am 11.5 ENE 14 17 1027.3 - 0.2 - Partly cloudy - - - - -
30/03:30am 11.2 ENE 15 18 1027.5 - 0.2 - Partly cloudy - - - - -
30/03:00am 11.3 ENE 16 19 1027.8 - 0.0 - Cloudy - - - - -
30/02:48am 11.3 ENE 14 18 1027.9 - 0.0 - Partly cloudy - - - - -
30/02:43am 11.4 ENE 14 18 1028.0 - 0.0 - Partly cloudy - - - - -
30/02:30am 11.3 ENE 15 19 1028.0 - 0.0 - Partly cloudy - - - - -
30/02:00am 11.1 ENE 14 17 1028.2 - 0.0 - Partly cloudy - - - - -
30/01:30am 11.2 ENE 15 18 1028.2 - 0.0 - Partly cloudy - - - - -
30/01:00am 11.4 ENE 16 19 1028.4 - 0.0 - Cloudy - - - - -
30/12:30am 11.4 ENE 12 14 1028.7 - 0.0 - Cloudy - - - - -
30/12:00am 11.5 ENE 11 14 1028.9 - 0.0 - Mostly cloudy - - - - -
 
Date/Time
EST
Temp

°C
Wind Pressure Rain
since 9am
mm
Weather Cloud Vis
km
Sea
Height
m
Swell
Dir
 
Speed
knots
Gust
knots
hPa Trend Height
m
Period
s
Dir
29/11:30pm 11.5 ENE 12 15 1028.9 - 0.0 - Partly cloudy - - - - -
29/11:00pm 11.3 ENE 11 14 1029.0 - 0.0 - Partly cloudy - - - - -
29/10:30pm 11.1 ENE 9 11 1029.3 - 0.0 - Partly cloudy - - - - -
29/10:00pm 11.1 ENE 8 10 1029.4 - 0.0 - Partly cloudy - - - - -
29/09:30pm 11.2 ENE 8 9 1029.5 - 0.0 - Partly cloudy - - - - -
29/09:00pm 11.4 ENE 8 11 1029.5 - 0.0 - Cloudy - - - - -
29/08:30pm 11.3 ENE 8 10 1029.3 - 0.0 - Partly cloudy - - - - -
29/08:00pm 10.8 ENE 10 13 1029.1 - 0.0 - Partly cloudy - - - - -
29/07:53pm 10.9 ENE 10 12 1029.2 - 0.0 - Partly cloudy - - - - -
29/07:30pm 10.9 ENE 11 12 1029.2 - 0.0 - Partly cloudy - - - - -
29/07:00pm 10.5 ENE 11 11 1029.1 - 0.0 - - - - - - -
29/06:30pm 10.6 ENE 10 11 1029.0 - 0.0 - - - - - - -
29/06:00pm 11.0 ENE 12 14 1028.6 - 0.0 - - - - - - -
29/05:30pm 11.5 NE 11 13 1028.5 - 0.0 - - - - - - -
29/05:00pm 12.3 NE 10 11 1028.5 - 0.0 - - - - - - -
29/04:30pm 13.0 NE 9 11 1028.4 - 0.0 - - - - - - -
29/04:00pm 13.0 NE 11 12 1028.4 - 0.0 - - - - - - -
29/03:30pm 13.4 NE 10 13 1028.4 - 0.0 - - - - - - -
29/03:00pm 13.6 ENE 11 13 1028.5 - 0.0 - - - - - - -
29/02:30pm 14.0 NE 10 12 1029.0 - 0.0 - - - - - - -
29/02:00pm 13.8 NE 11 12 1028.9 - 0.0 - - - - - - -
29/01:30pm 14.1 NE 10 12 1029.0 - 0.0 - - - - - - -
29/01:00pm 14.0 NNE 9 11 1029.1 - 0.0 - - - - - - -
29/12:39pm 13.9 NNE 8 11 1029.3 - 0.0 - Partly cloudy - - - - -
29/12:30pm 13.7 NNE 8 10 1029.4 - 0.0 - Partly cloudy - - - - -
29/12:14pm 14.1 N 7 11 1029.5 - 0.0 - Partly cloudy - - - - -
29/12:13pm 14.0 N 7 11 1029.5 - 0.0 - Partly cloudy - - - - -
29/12:00pm 13.7 N 7 10 1029.6 - 0.0 - Partly cloudy - - - - -
29/11:30am 13.9 N 8 10 1030.0 - 0.0 - Partly cloudy - - - - -
29/11:00am 13.7 N 8 11 1030.0 - 0.0 - Partly cloudy - - - - -
29/10:49am 13.3 N 8 10 1030.0 - 0.0 - Partly cloudy - - - - -
29/10:30am 12.9 N 7 10 1030.1 - 0.0 - Partly cloudy - - - - -
29/10:00am 12.0 N 7 9 1030.0 - 0.0 - Partly cloudy - - - - -
29/09:30am 11.7 N 8 9 1030.1 - 0.0 - Partly cloudy - - - - -
29/09:00am 11.4 N 8 10 1030.1 - 0.0 - Mostly cloudy - - - - -
29/08:30am 10.9 N 9 10 1029.9 - 0.0 - Cloudy - - - - -
29/08:00am 10.0 N 8 8 1029.8 - 0.0 - Cloudy - - - - -
29/07:30am 9.7 N 8 8 1029.4 - 0.0 - Cloudy - - - - -
29/07:00am 9.4 N 8 8 1029.0 - 0.0 - Partly cloudy - - - - -
29/06:30am 10.0 N 7 8 1028.8 - 0.0 - Cloudy - - - - -
29/06:00am 9.6 N 5 6 1028.6 - 0.0 - Cloudy - - - - -
29/05:49am 9.8 N 5 6 1028.5 - 0.0 - Partly cloudy - - - - -
29/05:30am 9.3 N 6 6 1028.4 - 0.0 - Partly cloudy - - - - -
29/05:16am 9.5 N 5 6 1028.3 - 0.0 - Partly cloudy - - - - -
29/05:00am 9.8 N 4 5 1028.3 - 0.0 - Partly cloudy - - - - -
29/04:30am 10.4 N 3 4 1028.4 - 0.0 - Partly cloudy - - - - -
29/04:00am 10.2 N 4 4 1028.2 - 0.0 - Partly cloudy - - - - -
29/03:30am 10.4 N 5 6 1028.0 - 0.0 - Partly cloudy - - - - -
29/03:00am 10.2 N 5 6 1028.1 - 0.0 - Mostly cloudy - - - - -
29/02:30am 10.4 N 4 6 1028.1 - 0.0 - Partly cloudy - - - - -
29/02:00am 10.7 N 6 7 1028.2 - 0.0 - Cloudy - - - - -
29/01:30am 10.7 N 4 5 1028.5 - 0.0 - Cloudy - - - - -
29/01:00am 10.9 N 5 6 1028.6 - 0.0 - Cloudy - - - - -
29/12:30am 10.9 N 4 5 1028.8 - 0.0 - Partly cloudy - - - - -
29/12:00am 10.9 N 5 5 1028.8 - 0.0 - Mostly cloudy - - - - -
 
Date/Time
EST
Temp

°C
Wind Pressure Rain
since 9am
mm
Weather Cloud Vis
km
Sea
Height
m
Swell
Dir
 
Speed
knots
Gust
knots
hPa Trend Height
m
Period
s
Dir
28/11:30pm 10.7 N 6 6 1028.6 - 0.0 - Cloudy - - - - -
28/11:00pm 10.7 N 6 6 1028.6 - 0.0 - Cloudy - - - - -
28/10:30pm 10.9 N 6 7 1028.7 - 0.0 - Cloudy - - - - -
28/10:00pm 11.0 N 6 7 1028.7 - 0.0 - Cloudy - - - - -
28/09:30pm 11.0 N 6 7 1028.7 - 0.0 - Cloudy - - - - -
28/09:00pm 10.9 N 6 7 1028.8 - 0.0 - Cloudy - - - - -
28/08:30pm 10.9 N 5 6 1028.6 - 0.0 - Cloudy - - - - -
28/08:00pm 10.8 N 5 5 1028.5 - 0.0 - Cloudy - - - - -
28/07:30pm 11.0 N 2 3 1028.3 - 0.0 - Cloudy - - - - -
28/07:00pm 11.3 N 4 5 1028.3 - 0.0 - Cloudy - - - - -
28/06:30pm 11.3 N 5 6 1028.1 - 0.0 - Cloudy - - - - -
28/06:00pm 11.1 N 7 8 1027.9 - 0.0 - Mostly clear - - - - -
28/05:30pm 11.0 N 6 8 1027.8 - 0.0 - - - - - - -
28/05:00pm 11.9 N 8 11 1027.6 - 0.0 - - - - - - -
28/04:30pm 12.3 NNE 9 11 1027.5 - 0.0 - - - - - - -
28/04:00pm 12.7 NNE 9 11 1027.5 - 0.0 - Partly cloudy - - - - -
28/03:30pm 12.6 N 10 15 1027.3 - 0.0 - Partly cloudy - - - - -
28/03:00pm 12.6 NNW 9 12 1027.5 - 0.0 - Partly cloudy - - - - -
28/02:30pm 13.1 NNW 10 12 1027.6 - 0.0 - Cloudy - - - - -
28/02:00pm 13.3 NNW 9 11 1027.6 - 0.0 - Cloudy - - - - -
28/01:30pm 12.6 NNW 9 10 1027.7 - 0.0 - Cloudy - - - - -
28/01:00pm 13.2 N 10 11 1028.0 - 0.0 - Cloudy - - - - -
28/12:30pm 13.2 N 8 10 1028.3 - 0.0 - Cloudy - - - - -
28/12:00pm 13.2 N 9 11 1028.6 - 0.0 - Cloudy - - - - -
28/11:30am 13.5 NNE 9 11 1028.9 - 0.0 - Partly cloudy - - - - -
28/11:00am 13.8 NNE 8 10 1029.0 - 0.0 - Partly cloudy - - - - -
28/10:30am 12.9 NNE 8 10 1029.2 - 0.0 - Partly cloudy - - - - -
28/10:00am 13.2 NNE 8 11 1029.3 - 0.0 - Cloudy - - - - -
28/09:30am 12.7 NE 8 9 1029.4 - 0.0 - Cloudy - - - - -
28/09:00am 12.7 NE 7 9 1029.2 - 0.0 - Mostly cloudy - - - - -
28/08:30am 12.1 NE 5 6 1029.1 - 0.0 - Cloudy - - - - -
28/08:00am 11.5 NE 5 7 1029.0 - 0.0 - Cloudy - - - - -
28/07:30am 11.1 NE 6 7 1028.7 - 0.0 - Cloudy - - - - -
28/07:00am 11.0 NE 6 7 1028.5 - 0.0 - Cloudy - - - - -
28/06:30am 11.2 NE 7 8 1028.3 - 0.0 - Cloudy - - - - -
28/06:00am 11.1 NE 7 8 1028.2 - 0.0 - Cloudy - - - - -
28/05:30am 11.1 NE 7 8 1028.0 - 0.0 - Cloudy - - - - -
28/05:00am 11.1 NE 6 7 1028.1 - 0.0 - Cloudy - - - - -
28/04:30am 11.1 NE 7 9 1028.0 - 0.0 - Cloudy - - - - -
28/04:00am 11.0 NE 5 6 1028.1 - 0.0 - Cloudy - - - - -
28/03:30am 11.0 NE 6 6 1028.1 - 0.0 - Cloudy - - - - -
28/03:00am 11.1 NE 6 7 1028.1 - 0.0 - Cloudy - - - - -
28/02:30am 11.2 NE 7 10 1028.2 - 0.0 - Cloudy - - - - -
28/02:00am 11.0 NE 6 8 1028.3 - 0.0 - Cloudy - - - - -
28/01:30am 11.0 NE 7 9 1028.4 - 0.0 - Cloudy - - - - -
28/01:00am 10.5 NE 8 10 1028.5 - 0.0 - Cloudy - - - - -
28/12:30am 10.9 NE 5 7 1028.9 - 0.0 - Partly cloudy - - - - -
28/12:00am 10.3 NE 8 9 1028.6 - 0.0 - Mostly cloudy - - - - -
 
Date/Time
EST
Temp

°C
Wind Pressure Rain
since 9am
mm
Weather Cloud Vis
km
Sea
Height
m
Swell
Dir
 
Speed
knots
Gust
knots
hPa Trend Height
m
Period
s
Dir
27/11:30pm 10.8 NE 8 11 1028.6 - 0.0 - - - - - - -
27/11:00pm 10.5 NE 7 8 1028.7 - 0.0 - Partly cloudy - - - - -
27/10:30pm 11.4 NE 5 7 1028.8 - 0.0 - Cloudy - - - - -
27/10:00pm 11.4 NE 6 9 1028.8 - 0.0 - Partly cloudy - - - - -
27/09:30pm 11.5 NNE 7 9 1028.8 - 0.0 - Cloudy - - - - -
27/09:00pm 11.5 NNE 7 7 1028.9 - 0.0 - Cloudy - - - - -
27/08:30pm 11.3 NNE 8 9 1028.7 - 0.0 - Partly cloudy - - - - -

Other Formats:

Comma delimited format used in spreadsheet applications
http://www.bom.gov.au/fwo/IDV60701/IDV60701.95954.axf

JavaScript Object Notation format (JSON) in row-major order
http://www.bom.gov.au/fwo/IDV60701/IDV60701.95954.json